Time;durP1;ratioP1;P1;durP2;ratioP2;P2;SDS_P1;SDS_P2;PMS_P1;PMS_P2;Temp;Humidity;BMP_temperature;BMP_pressure;BME280_temperature;BME280_humidity;BME280_pressure;Samples;Min_cycle;Max_cycle;Signal;HPM_P1;HPM_P2
2023/01/24 00:00:00;;;;;;;76.30;34.60;;;;;;;2.00;98.61;101180.70;107924;1308;22962;-41
2023/01/24 00:02:26;;;;;;;70.30;33.70;;;;;;;2.04;98.63;101180.41;107914;1308;22902;-41
2023/01/24 00:04:51;;;;;;;66.00;31.80;;;;;;;2.05;98.40;101181.45;107922;1308;23166;-41
2023/01/24 00:07:16;;;;;;;61.00;30.20;;;;;;;2.03;98.32;101182.65;107926;1308;22478;-42
2023/01/24 00:09:42;;;;;;;71.20;31.30;;;;;;;2.05;98.03;101183.88;107921;1307;22316;-39
2023/01/24 00:12:07;;;;;;;73.90;33.00;;;;;;;2.08;97.91;101185.28;107894;1308;24591;-41
2023/01/24 00:14:33;;;;;;;65.20;32.30;;;;;;;2.10;98.00;101184.95;107896;1308;22775;-40
2023/01/24 00:16:58;;;;;;;69.60;33.60;;;;;;;2.14;98.09;101187.94;107904;1308;22715;-41
2023/01/24 00:19:23;;;;;;;73.00;33.20;;;;;;;2.14;98.04;101187.60;107896;1307;22236;-41
2023/01/24 00:21:48;;;;;;;69.40;31.30;;;;;;;2.12;97.91;101189.82;107901;1307;22454;-41
2023/01/24 00:24:14;;;;;;;71.00;32.60;;;;;;;2.17;97.98;101191.94;107899;1308;22400;-41
2023/01/24 00:26:39;;;;;;;74.30;32.60;;;;;;;2.17;97.96;101189.54;107920;1307;22331;-41
2023/01/24 00:29:05;;;;;;;71.70;32.60;;;;;;;2.19;97.67;101189.54;107806;1307;139945;-41
2023/01/24 00:31:30;;;;;;;63.90;30.60;;;;;;;2.22;97.80;101185.61;107914;1307;22391;-41
2023/01/24 00:33:56;;;;;;;67.80;32.60;;;;;;;2.16;97.66;101184.86;107903;1307;23044;-41
2023/01/24 00:36:21;;;;;;;64.50;31.30;;;;;;;2.13;97.51;101186.04;107881;1308;22965;-41
2023/01/24 00:38:46;;;;;;;60.70;30.40;;;;;;;2.12;97.71;101190.00;107904;1308;22219;-41
2023/01/24 00:41:12;;;;;;;61.90;30.60;;;;;;;2.12;97.56;101189.65;107914;1307;24270;-46
2023/01/24 00:43:37;;;;;;;71.60;31.20;;;;;;;2.15;97.69;101189.69;107925;1308;23229;-41
2023/01/24 00:46:07;;;;;;;65.10;31.00;;;;;;;2.12;97.62;101191.39;107922;1308;22226;-41
2023/01/24 00:48:32;;;;;;;68.50;31.40;;;;;;;2.16;97.72;101194.00;107912;1307;22279;-40
2023/01/24 00:50:58;;;;;;;63.80;31.30;;;;;;;2.18;97.79;101191.26;107910;1308;22453;-41
2023/01/24 00:53:25;;;;;;;65.50;30.10;;;;;;;2.20;97.73;101193.52;107925;1308;22234;-40
2023/01/24 00:55:51;;;;;;;62.90;30.60;;;;;;;2.22;97.60;101193.73;107899;1308;22941;-41
2023/01/24 00:58:17;;;;;;;65.10;29.20;;;;;;;2.23;97.55;101192.70;107942;1308;22319;-41
2023/01/24 01:00:43;;;;;;;63.10;30.10;;;;;;;2.21;97.31;101193.89;107697;1308;22234;-41
2023/01/24 01:03:15;;;;;;;65.00;30.50;;;;;;;2.19;97.09;101193.36;107885;1308;22221;-41
2023/01/24 01:05:40;;;;;;;62.20;30.90;;;;;;;2.20;97.17;101193.71;107925;1308;22445;-41
2023/01/24 01:08:05;;;;;;;65.30;30.60;;;;;;;2.24;97.12;101193.93;107903;1307;23147;-41
2023/01/24 01:10:31;;;;;;;66.50;30.90;;;;;;;2.29;97.25;101196.90;107897;1307;22273;-41
2023/01/24 01:12:56;;;;;;;66.00;31.20;;;;;;;2.26;97.15;101194.81;107898;1308;23058;-48
2023/01/24 01:15:22;;;;;;;65.80;30.20;;;;;;;2.21;97.18;101189.56;107887;1308;22224;-41
2023/01/24 01:17:47;;;;;;;69.20;30.60;;;;;;;2.23;97.26;101187.51;107889;1307;23249;-41
2023/01/24 01:20:12;;;;;;;62.30;28.30;;;;;;;2.27;97.37;101188.93;107913;1307;23074;-41
2023/01/24 01:22:37;;;;;;;67.90;30.00;;;;;;;2.26;97.26;101190.66;107917;1307;23854;-41
2023/01/24 01:25:03;;;;;;;66.30;30.10;;;;;;;2.20;97.06;101191.29;107926;1307;22960;-40
2023/01/24 01:27:28;;;;;;;65.60;31.20;;;;;;;2.18;97.13;101189.71;107925;1307;22306;-41
2023/01/24 01:29:54;;;;;;;56.60;26.90;;;;;;;2.21;97.21;101186.79;107945;1307;22956;-41
2023/01/24 01:32:19;;;;;;;60.90;28.80;;;;;;;2.21;97.15;101190.09;107943;1307;23083;-41
2023/01/24 01:34:45;;;;;;;57.00;27.90;;;;;;;2.20;97.33;101192.50;107916;1307;22401;-40
2023/01/24 01:37:10;;;;;;;59.20;28.20;;;;;;;2.18;97.27;101189.36;107936;1307;22226;-41
2023/01/24 01:39:35;;;;;;;61.70;28.90;;;;;;;2.21;97.46;101191.29;107933;1307;24202;-41
2023/01/24 01:42:01;;;;;;;60.10;29.00;;;;;;;2.20;97.43;101192.66;107939;1307;22267;-41
2023/01/24 01:44:40;;;;;;;60.90;28.50;;;;;;;2.20;97.30;101190.42;107956;1307;22223;-41
2023/01/24 01:47:18;;;;;;;56.40;28.40;;;;;;;2.18;97.34;101187.80;107984;1307;22267;-41
2023/01/24 01:50:07;;;;;;;66.40;29.30;;;;;;;2.18;97.30;101185.55;107915;1307;23071;-41
2023/01/24 01:52:36;;;;;;;55.20;26.20;;;;;;;2.20;97.21;101188.69;107950;1307;22751;-41
2023/01/24 01:55:08;;;;;;;54.50;26.50;;;;;;;2.19;97.06;101184.00;107961;1307;22231;-41
2023/01/24 01:57:35;;;;;;;58.00;28.00;;;;;;;2.10;96.98;101180.46;107934;1307;22393;-42
2023/01/24 02:00:04;;;;;;;57.70;27.70;;;;;;;2.11;97.27;101174.23;107963;1307;22050;-41
2023/01/24 02:02:31;;;;;;;56.80;27.40;;;;;;;2.11;97.31;101173.55;107937;1307;23236;-41
2023/01/24 02:05:00;;;;;;;59.60;27.70;;;;;;;2.13;97.38;101173.23;107931;1307;22263;-41
2023/01/24 02:07:28;;;;;;;62.10;28.00;;;;;;;2.14;97.36;101170.64;107919;1307;22310;-41
2023/01/24 02:09:55;;;;;;;59.40;27.80;;;;;;;2.15;97.44;101171.34;107949;1307;23083;-40
2023/01/24 02:12:24;;;;;;;67.10;26.80;;;;;;;2.19;97.48;101165.66;107927;1307;22382;-40
2023/01/24 02:17:37;;;;;;;61.30;29.20;;;;;;;2.17;97.36;101166.16;107944;1307;22578;-40
2023/01/24 02:20:25;;;;;;;59.10;29.10;;;;;;;2.21;97.35;101163.95;107928;1307;23185;-40
2023/01/24 02:23:15;;;;;;;62.00;28.90;;;;;;;2.22;97.23;101159.80;107922;1307;22242;-40
2023/01/24 02:25:45;;;;;;;58.70;27.50;;;;;;;2.18;97.22;101150.08;107931;1307;22250;-40
2023/01/24 02:28:11;;;;;;;62.20;26.30;;;;;;;2.19;97.31;101145.24;107916;1307;23153;-40
2023/01/24 02:30:37;;;;;;;59.50;28.50;;;;;;;2.16;97.14;101145.91;107932;1307;23210;-40
2023/01/24 02:33:15;;;;;;;59.80;28.20;;;;;;;2.15;97.21;101144.70;107908;1307;22418;-40
2023/01/24 02:35:41;;;;;;;59.60;28.10;;;;;;;2.13;97.22;101142.77;107919;1307;22410;-40
2023/01/24 02:38:16;;;;;;;56.10;26.90;;;;;;;2.06;97.40;101143.23;107914;1307;22845;-40
2023/01/24 02:44:01;;;;;;;60.80;28.70;;;;;;;2.20;97.53;101141.63;107130;1302;558395;-39
2023/01/24 02:46:29;;;;;;;60.20;28.50;;;;;;;2.21;97.42;101142.33;107346;1313;23165;-41
2023/01/24 02:48:55;;;;;;;61.20;28.20;;;;;;;2.22;97.30;101147.70;107359;1313;22938;-40
2023/01/24 02:54:04;;;;;;;66.20;29.80;;;;;;;2.23;97.26;101149.61;107354;1313;23627;-40
2023/01/24 02:59:13;;;;;;;54.20;26.10;;;;;;;2.22;97.40;101152.20;107563;1311;22231;-41
2023/01/24 03:01:38;;;;;;;57.00;27.30;;;;;;;2.24;97.32;101157.73;107529;1311;22239;-41
2023/01/24 03:04:04;;;;;;;58.20;27.70;;;;;;;2.21;97.27;101159.11;107513;1311;22924;-40
2023/01/24 03:06:29;;;;;;;55.50;27.50;;;;;;;2.21;97.28;101162.73;107519;1311;22461;-41
2023/01/24 03:08:54;;;;;;;55.60;27.80;;;;;;;2.19;97.16;101168.95;107529;1311;22252;-40
2023/01/24 03:11:19;;;;;;;59.70;26.90;;;;;;;2.23;97.14;101165.89;107546;1311;22469;-41
2023/01/24 03:35:53;;;;;;;55.90;27.50;;;;;;;2.27;97.20;101171.63;107545;1311;22427;-41
2023/01/24 03:41:03;;;;;;;57.00;29.10;;;;;;;2.21;96.76;101175.03;107535;1311;22266;-41
2023/01/24 03:43:28;;;;;;;62.80;29.20;;;;;;;2.19;96.91;101174.14;107532;1311;22511;-40
2023/01/24 03:46:00;;;;;;;55.00;28.30;;;;;;;2.21;96.96;101176.75;107526;1311;23190;-41
2023/01/24 03:48:33;;;;;;;60.70;27.00;;;;;;;2.24;97.04;101177.84;107512;1311;22255;-40
2023/01/24 03:53:42;;;;;;;58.10;29.00;;;;;;;2.24;97.00;101179.90;107531;1311;22381;-41
2023/01/24 03:56:08;;;;;;;56.50;27.20;;;;;;;2.26;97.09;101175.26;107525;1311;22188;-41
2023/01/24 03:58:33;;;;;;;56.30;28.10;;;;;;;2.27;97.18;101178.73;107453;1310;22605;-37
2023/01/24 04:00:59;;;;;;;60.10;29.50;;;;;;;2.30;97.03;101182.55;107329;1309;23390;-40
2023/01/24 04:03:24;;;;;;;62.00;29.80;;;;;;;2.31;96.80;101185.52;107682;1309;22442;-40
2023/01/24 04:05:50;;;;;;;59.30;29.20;;;;;;;2.30;96.69;101187.06;107710;1309;23010;-40
2023/01/24 04:08:17;;;;;;;61.10;28.60;;;;;;;2.33;96.69;101192.27;107837;1308;23019;-40
2023/01/24 04:10:43;;;;;;;64.50;28.70;;;;;;;2.34;96.60;101194.17;107828;1308;22484;-40
2023/01/24 04:13:09;;;;;;;57.60;28.00;;;;;;;2.31;96.66;101194.16;107820;1308;22316;-40
2023/01/24 04:15:35;;;;;;;59.20;28.30;;;;;;;2.32;96.58;101193.82;107870;1308;23015;-39
2023/01/24 04:18:02;;;;;;;62.80;28.60;;;;;;;2.32;96.50;101195.72;107862;1308;22418;-40
2023/01/24 04:20:31;;;;;;;55.80;28.80;;;;;;;2.33;96.57;101193.14;107710;1308;22979;-40
2023/01/24 04:23:01;;;;;;;61.10;29.00;;;;;;;2.35;96.53;101191.41;107838;1308;22427;-40
2023/01/24 04:25:27;;;;;;;60.00;28.50;;;;;;;2.37;96.48;101192.29;107860;1308;22487;-40
2023/01/24 04:27:52;;;;;;;59.70;29.10;;;;;;;2.36;96.50;101194.89;107842;1308;23069;-40
2023/01/24 04:30:17;;;;;;;60.90;29.90;;;;;;;2.34;96.56;101197.30;107863;1308;22434;-40
2023/01/24 04:32:43;;;;;;;59.40;27.80;;;;;;;2.38;96.68;101197.85;107845;1308;22541;-40
2023/01/24 04:35:14;;;;;;;58.30;30.20;;;;;;;2.37;96.66;101193.70;107963;1307;22273;-40
2023/01/24 04:37:39;;;;;;;58.40;29.30;;;;;;;2.37;96.64;101192.98;107994;1307;22473;-40
2023/01/24 04:40:05;;;;;;;57.00;29.00;;;;;;;2.40;96.62;101197.17;107989;1307;22486;-40
2023/01/24 04:42:31;;;;;;;62.50;28.20;;;;;;;2.39;96.68;101197.17;107967;1307;22243;-40
2023/01/24 04:44:56;;;;;;;56.70;27.40;;;;;;;2.44;96.75;101197.91;107969;1307;22277;-40
2023/01/24 04:47:21;;;;;;;60.50;30.10;;;;;;;2.43;96.55;101204.83;107971;1307;22484;-40
2023/01/24 04:49:47;;;;;;;63.50;29.80;;;;;;;2.38;96.40;101206.16;107955;1307;24254;-40
2023/01/24 04:52:13;;;;;;;64.40;28.80;;;;;;;2.36;96.55;101203.54;107965;1307;23244;-40
2023/01/24 04:54:41;;;;;;;55.60;27.80;;;;;;;2.30;96.70;101205.23;107981;1307;22828;-40
2023/01/24 04:57:10;;;;;;;61.40;29.20;;;;;;;2.33;96.77;101208.89;107947;1307;22249;-40
2023/01/24 04:59:35;;;;;;;63.20;29.10;;;;;;;2.32;96.66;101208.35;107983;1307;22271;-41
2023/01/24 05:02:01;;;;;;;55.90;27.40;;;;;;;2.33;96.81;101208.02;107942;1307;22828;-40
2023/01/24 05:04:26;;;;;;;68.20;30.10;;;;;;;2.29;96.75;101206.61;107823;1308;22478;-40
2023/01/24 05:06:51;;;;;;;62.70;29.70;;;;;;;2.30;96.97;101207.66;107790;1308;23113;-40
2023/01/24 05:09:16;;;;;;;64.90;30.40;;;;;;;2.38;96.98;101206.67;107945;1307;22266;-41
2023/01/24 05:11:42;;;;;;;67.40;31.10;;;;;;;2.36;96.93;101205.27;107972;1307;22260;-41
2023/01/24 05:14:10;;;;;;;62.00;30.30;;;;;;;2.31;96.80;101205.59;107929;1307;22215;-41
2023/01/24 05:16:36;;;;;;;65.70;30.10;;;;;;;2.33;96.94;101204.38;107969;1307;22444;-41
2023/01/24 05:19:02;;;;;;;72.70;33.10;;;;;;;2.34;97.00;101204.20;107954;1307;22270;-41
2023/01/24 05:21:28;;;;;;;68.00;29.40;;;;;;;2.33;97.09;101207.48;107946;1307;22476;-41
2023/01/24 05:23:53;;;;;;;63.20;29.50;;;;;;;2.37;97.06;101211.17;107942;1307;22281;-41
2023/01/24 05:26:21;;;;;;;67.90;30.10;;;;;;;2.33;96.87;101209.92;107939;1307;22231;-41
2023/01/24 05:28:47;;;;;;;73.20;30.30;;;;;;;2.30;96.99;101213.70;108015;1307;22248;-41
2023/01/24 05:31:12;;;;;;;76.00;32.00;;;;;;;2.31;97.19;101212.86;108021;1307;22280;-41
2023/01/24 05:33:37;;;;;;;69.90;30.90;;;;;;;2.32;97.31;101211.30;107976;1307;23041;-41
2023/01/24 05:36:06;;;;;;;65.50;31.30;;;;;;;2.30;97.14;101209.55;107990;1307;23033;-41
2023/01/24 05:38:32;;;;;;;69.90;32.30;;;;;;;2.29;97.22;101211.11;108012;1307;22427;-41
2023/01/24 05:41:03;;;;;;;70.40;32.00;;;;;;;2.32;97.33;101211.81;108000;1307;22866;-41
2023/01/24 05:43:28;;;;;;;74.10;32.30;;;;;;;2.33;97.23;101213.39;107989;1307;22519;-41
2023/01/24 05:46:03;;;;;;;71.30;30.90;;;;;;;2.33;97.18;101215.98;108007;1307;22473;-40
2023/01/24 05:48:28;;;;;;;66.90;30.70;;;;;;;2.32;97.20;101214.41;107978;1307;22408;-41
2023/01/24 05:51:02;;;;;;;63.80;29.30;;;;;;;2.30;97.22;101215.79;107960;1307;22418;-41
2023/01/24 05:53:29;;;;;;;74.40;32.50;;;;;;;2.27;97.15;101215.05;108025;1307;22498;-41
2023/01/24 05:55:59;;;;;;;75.80;33.70;;;;;;;2.25;97.26;101216.26;108012;1307;22500;-41
2023/01/24 05:58:26;;;;;;;68.40;31.60;;;;;;;2.25;97.32;101213.66;108007;1307;22335;-41
2023/01/24 06:00:51;;;;;;;69.40;32.50;;;;;;;2.24;97.26;101214.86;108025;1307;22252;-41
2023/01/24 06:03:18;;;;;;;65.70;30.10;;;;;;;2.21;97.30;101214.48;108001;1307;22277;-41
2023/01/24 06:05:52;;;;;;;70.50;32.00;;;;;;;2.21;97.45;101217.08;108027;1307;22260;-41
2023/01/24 06:08:18;;;;;;;65.60;31.10;;;;;;;2.20;97.47;101220.89;108002;1307;22320;-42
2023/01/24 06:10:44;;;;;;;72.40;32.00;;;;;;;2.16;97.62;101221.35;108023;1307;23192;-40
2023/01/24 06:13:10;;;;;;;65.90;30.20;;;;;;;2.18;97.63;101223.27;108014;1307;22907;-41
2023/01/24 06:15:36;;;;;;;84.40;40.60;;;;;;;2.15;97.66;101226.52;108004;1307;22537;-41
2023/01/24 06:18:02;;;;;;;79.60;37.10;;;;;;;2.16;97.78;101229.48;108033;1307;22626;-40
2023/01/24 06:20:28;;;;;;;71.90;31.60;;;;;;;2.17;98.00;101232.27;108015;1307;22410;-41
2023/01/24 06:22:56;;;;;;;73.10;33.50;;;;;;;2.21;97.83;101231.27;108032;1307;23468;-42
2023/01/24 06:25:25;;;;;;;73.60;32.40;;;;;;;2.22;97.79;101233.54;108012;1307;22467;-41
2023/01/24 06:27:50;;;;;;;66.90;31.70;;;;;;;2.23;97.80;101234.58;108010;1307;22433;-41
2023/01/24 06:30:17;;;;;;;65.60;29.80;;;;;;;2.25;97.96;101239.63;108014;1301;22411;-41
2023/01/24 06:33:19;;;;;;;71.70;32.60;;;;;;;2.27;97.82;101233.23;108012;1307;23078;-41
2023/01/24 06:36:03;;;;;;;70.40;31.60;;;;;;;2.29;97.67;101235.34;107995;1307;22213;-41
2023/01/24 06:38:28;;;;;;;74.40;31.90;;;;;;;2.32;97.65;101237.78;108008;1307;22393;-40
2023/01/24 06:40:56;;;;;;;74.10;33.00;;;;;;;2.35;97.58;101241.27;108027;1307;22507;-41
2023/01/24 06:43:22;;;;;;;67.60;30.90;;;;;;;2.40;97.48;101244.78;108005;1307;22960;-41
2023/01/24 06:45:48;;;;;;;81.20;33.50;;;;;;;2.39;97.29;101246.15;108024;1307;22243;-41
2023/01/24 06:48:13;;;;;;;72.20;34.10;;;;;;;2.36;97.21;101245.95;108009;1307;22484;-40
2023/01/24 06:50:39;;;;;;;71.80;31.20;;;;;;;2.33;97.25;101246.80;107993;1307;22448;-41
2023/01/24 06:53:04;;;;;;;63.20;30.50;;;;;;;2.33;97.22;101253.36;108002;1307;22256;-41
2023/01/24 06:55:30;;;;;;;71.20;30.50;;;;;;;2.30;97.33;101259.05;108002;1307;23179;-41
2023/01/24 06:58:00;;;;;;;74.20;32.80;;;;;;;2.25;97.34;101265.05;108000;1307;22425;-41
2023/01/24 07:00:26;;;;;;;69.00;32.90;;;;;;;2.29;97.50;101268.38;107997;1307;22771;-41
2023/01/24 07:03:06;;;;;;;72.50;33.80;;;;;;;2.36;97.53;101270.19;108006;1307;22481;-41
2023/01/24 07:05:32;;;;;;;71.10;32.80;;;;;;;2.38;97.54;101271.42;108006;1307;22484;-41
2023/01/24 07:07:57;;;;;;;69.20;31.70;;;;;;;2.41;97.43;101268.50;107996;1307;22422;-41
2023/01/24 07:10:23;;;;;;;69.90;32.80;;;;;;;2.42;97.26;101264.36;108001;1307;22272;-41
